sensor_id;sensor_type;location;lat;lon;timestamp;P1;durP1;ratioP1;P2;durP2;ratioP2
24173;SDS011;12324;48.146;11.502;2022-09-16T00:00:41;10.95;;;4.93;;
24173;SDS011;12324;48.146;11.502;2022-09-16T00:03:10;8.23;;;3.95;;
24173;SDS011;12324;48.146;11.502;2022-09-16T00:05:41;7.45;;;3.85;;
24173;SDS011;12324;48.146;11.502;2022-09-16T00:08:09;8.48;;;4.40;;
24173;SDS011;12324;48.146;11.502;2022-09-16T00:10:36;10.07;;;5.03;;
24173;SDS011;12324;48.146;11.502;2022-09-16T00:13:02;7.90;;;4.28;;
24173;SDS011;12324;48.146;11.502;2022-09-16T00:15:30;10.35;;;4.38;;
24173;SDS011;12324;48.146;11.502;2022-09-16T00:17:57;8.93;;;4.20;;
24173;SDS011;12324;48.146;11.502;2022-09-16T00:20:24;9.27;;;4.65;;
24173;SDS011;12324;48.146;11.502;2022-09-16T00:22:51;10.93;;;4.82;;
24173;SDS011;12324;48.146;11.502;2022-09-16T00:25:18;11.48;;;4.70;;
24173;SDS011;12324;48.146;11.502;2022-09-16T00:27:48;8.55;;;4.15;;
24173;SDS011;12324;48.146;11.502;2022-09-16T00:30:15;7.88;;;4.22;;
24173;SDS011;12324;48.146;11.502;2022-09-16T00:32:42;8.40;;;4.07;;
24173;SDS011;12324;48.146;11.502;2022-09-16T00:35:09;12.25;;;4.70;;
24173;SDS011;12324;48.146;11.502;2022-09-16T00:37:36;9.77;;;4.15;;
24173;SDS011;12324;48.146;11.502;2022-09-16T00:40:03;7.95;;;4.18;;
24173;SDS011;12324;48.146;11.502;2022-09-16T00:42:30;8.07;;;4.03;;
24173;SDS011;12324;48.146;11.502;2022-09-16T00:45:04;7.70;;;3.95;;
24173;SDS011;12324;48.146;11.502;2022-09-16T00:47:43;8.93;;;4.38;;
24173;SDS011;12324;48.146;11.502;2022-09-16T00:50:19;9.43;;;4.35;;
24173;SDS011;12324;48.146;11.502;2022-09-16T00:53:10;12.00;;;4.35;;
24173;SDS011;12324;48.146;11.502;2022-09-16T00:55:42;11.90;;;5.38;;
24173;SDS011;12324;48.146;11.502;2022-09-16T00:58:16;9.20;;;4.22;;
24173;SDS011;12324;48.146;11.502;2022-09-16T01:00:47;9.27;;;4.15;;
24173;SDS011;12324;48.146;11.502;2022-09-16T01:03:15;6.13;;;3.70;;
24173;SDS011;12324;48.146;11.502;2022-09-16T01:05:42;10.75;;;4.43;;
24173;SDS011;12324;48.146;11.502;2022-09-16T01:08:10;7.13;;;3.58;;
24173;SDS011;12324;48.146;11.502;2022-09-16T01:10:39;8.05;;;4.05;;
24173;SDS011;12324;48.146;11.502;2022-09-16T01:13:07;8.18;;;3.90;;
24173;SDS011;12324;48.146;11.502;2022-09-16T01:15:49;8.60;;;4.20;;
24173;SDS011;12324;48.146;11.502;2022-09-16T01:18:25;7.60;;;4.17;;
24173;SDS011;12324;48.146;11.502;2022-09-16T01:21:05;7.93;;;3.95;;
24173;SDS011;12324;48.146;11.502;2022-09-16T01:32:26;6.72;;;3.88;;
24173;SDS011;12324;48.146;11.502;2022-09-16T01:34:57;7.47;;;3.90;;
24173;SDS011;12324;48.146;11.502;2022-09-16T01:43:20;7.82;;;4.07;;
24173;SDS011;12324;48.146;11.502;2022-09-16T01:46:12;8.77;;;4.03;;
24173;SDS011;12324;48.146;11.502;2022-09-16T01:49:03;9.88;;;4.47;;
24173;SDS011;12324;48.146;11.502;2022-09-16T01:54:11;10.80;;;4.15;;
24173;SDS011;12324;48.146;11.502;2022-09-16T01:56:48;8.07;;;3.42;;
24173;SDS011;12324;48.146;11.502;2022-09-16T02:01:54;9.60;;;4.25;;
24173;SDS011;12324;48.146;11.502;2022-09-16T02:04:41;7.95;;;4.10;;
24173;SDS011;12324;48.146;11.502;2022-09-16T02:07:16;8.40;;;4.50;;
24173;SDS011;12324;48.146;11.502;2022-09-16T02:10:05;10.05;;;4.18;;
24173;SDS011;12324;48.146;11.502;2022-09-16T02:12:39;10.30;;;4.30;;
24173;SDS011;12324;48.146;11.502;2022-09-16T02:15:08;9.75;;;4.53;;
24173;SDS011;12324;48.146;11.502;2022-09-16T02:17:40;9.23;;;4.22;;
24173;SDS011;12324;48.146;11.502;2022-09-16T02:20:15;10.02;;;4.25;;
24173;SDS011;12324;48.146;11.502;2022-09-16T02:25:45;9.15;;;4.25;;
24173;SDS011;12324;48.146;11.502;2022-09-16T02:28:16;8.70;;;4.47;;
24173;SDS011;12324;48.146;11.502;2022-09-16T02:30:49;7.82;;;4.18;;
24173;SDS011;12324;48.146;11.502;2022-09-16T02:33:18;10.90;;;4.75;;
24173;SDS011;12324;48.146;11.502;2022-09-16T02:35:48;12.77;;;4.75;;
24173;SDS011;12324;48.146;11.502;2022-09-16T02:38:20;8.93;;;4.30;;
24173;SDS011;12324;48.146;11.502;2022-09-16T02:40:51;8.63;;;4.38;;
24173;SDS011;12324;48.146;11.502;2022-09-16T02:43:21;10.02;;;4.03;;
24173;SDS011;12324;48.146;11.502;2022-09-16T02:51:32;9.85;;;3.92;;
24173;SDS011;12324;48.146;11.502;2022-09-16T02:54:18;10.52;;;4.30;;
24173;SDS011;12324;48.146;11.502;2022-09-16T02:57:12;10.70;;;4.93;;
24173;SDS011;12324;48.146;11.502;2022-09-16T02:59:39;9.20;;;4.15;;
24173;SDS011;12324;48.146;11.502;2022-09-16T03:02:07;9.00;;;4.18;;
24173;SDS011;12324;48.146;11.502;2022-09-16T03:04:34;8.60;;;4.53;;
24173;SDS011;12324;48.146;11.502;2022-09-16T03:07:04;8.57;;;4.28;;
24173;SDS011;12324;48.146;11.502;2022-09-16T03:09:33;8.00;;;4.13;;
24173;SDS011;12324;48.146;11.502;2022-09-16T03:23:18;8.65;;;4.50;;
24173;SDS011;12324;48.146;11.502;2022-09-16T03:28:37;10.65;;;4.40;;
24173;SDS011;12324;48.146;11.502;2022-09-16T03:31:27;11.98;;;4.95;;
24173;SDS011;12324;48.146;11.502;2022-09-16T03:36:33;13.00;;;4.85;;
24173;SDS011;12324;48.146;11.502;2022-09-16T03:39:04;8.35;;;4.50;;
24173;SDS011;12324;48.146;11.502;2022-09-16T03:41:31;10.80;;;4.10;;
24173;SDS011;12324;48.146;11.502;2022-09-16T03:43:59;8.65;;;4.55;;
24173;SDS011;12324;48.146;11.502;2022-09-16T03:46:29;9.02;;;3.95;;
24173;SDS011;12324;48.146;11.502;2022-09-16T03:48:57;6.97;;;3.60;;
24173;SDS011;12324;48.146;11.502;2022-09-16T03:51:24;9.45;;;4.50;;
24173;SDS011;12324;48.146;11.502;2022-09-16T03:53:52;8.27;;;3.88;;
24173;SDS011;12324;48.146;11.502;2022-09-16T03:56:20;9.95;;;5.07;;
24173;SDS011;12324;48.146;11.502;2022-09-16T03:58:48;9.90;;;4.72;;
24173;SDS011;12324;48.146;11.502;2022-09-16T04:01:15;9.73;;;4.63;;
24173;SDS011;12324;48.146;11.502;2022-09-16T04:03:41;11.27;;;5.07;;
24173;SDS011;12324;48.146;11.502;2022-09-16T04:06:08;10.73;;;4.93;;
24173;SDS011;12324;48.146;11.502;2022-09-16T04:08:35;11.50;;;4.70;;
24173;SDS011;12324;48.146;11.502;2022-09-16T04:11:03;12.20;;;4.95;;
24173;SDS011;12324;48.146;11.502;2022-09-16T04:13:32;10.98;;;4.97;;
24173;SDS011;12324;48.146;11.502;2022-09-16T04:15:59;10.23;;;4.88;;
24173;SDS011;12324;48.146;11.502;2022-09-16T04:18:29;11.35;;;5.50;;
24173;SDS011;12324;48.146;11.502;2022-09-16T04:20:56;12.48;;;5.70;;
24173;SDS011;12324;48.146;11.502;2022-09-16T04:23:24;10.63;;;4.80;;
24173;SDS011;12324;48.146;11.502;2022-09-16T04:25:55;10.98;;;5.03;;
24173;SDS011;12324;48.146;11.502;2022-09-16T04:28:22;10.52;;;5.35;;
24173;SDS011;12324;48.146;11.502;2022-09-16T04:30:50;12.07;;;5.25;;
24173;SDS011;12324;48.146;11.502;2022-09-16T04:33:17;11.80;;;4.90;;
24173;SDS011;12324;48.146;11.502;2022-09-16T04:35:44;12.20;;;5.57;;
24173;SDS011;12324;48.146;11.502;2022-09-16T04:38:10;10.52;;;5.15;;
24173;SDS011;12324;48.146;11.502;2022-09-16T04:40:37;11.45;;;5.93;;
24173;SDS011;12324;48.146;11.502;2022-09-16T04:43:05;10.27;;;4.78;;
24173;SDS011;12324;48.146;11.502;2022-09-16T04:45:31;11.65;;;5.68;;
24173;SDS011;12324;48.146;11.502;2022-09-16T04:47:58;11.77;;;5.45;;
24173;SDS011;12324;48.146;11.502;2022-09-16T04:50:25;11.88;;;6.10;;
24173;SDS011;12324;48.146;11.502;2022-09-16T04:52:51;13.98;;;6.18;;
24173;SDS011;12324;48.146;11.502;2022-09-16T04:55:18;13.40;;;6.18;;
24173;SDS011;12324;48.146;11.502;2022-09-16T04:57:48;12.38;;;6.15;;
24173;SDS011;12324;48.146;11.502;2022-09-16T05:00:15;15.55;;;5.60;;
24173;SDS011;12324;48.146;11.502;2022-09-16T05:02:44;12.93;;;6.55;;
24173;SDS011;12324;48.146;11.502;2022-09-16T05:05:11;13.10;;;6.68;;
24173;SDS011;12324;48.146;11.502;2022-09-16T05:07:38;13.10;;;7.05;;
24173;SDS011;12324;48.146;11.502;2022-09-16T05:10:05;14.55;;;7.30;;
24173;SDS011;12324;48.146;11.502;2022-09-16T05:12:34;15.10;;;7.35;;
24173;SDS011;12324;48.146;11.502;2022-09-16T05:15:01;14.05;;;6.70;;
24173;SDS011;12324;48.146;11.502;2022-09-16T05:17:28;13.48;;;6.20;;
24173;SDS011;12324;48.146;11.502;2022-09-16T05:20:15;13.73;;;6.55;;
24173;SDS011;12324;48.146;11.502;2022-09-16T05:22:42;16.80;;;8.00;;
24173;SDS011;12324;48.146;11.502;2022-09-16T05:25:09;12.90;;;6.65;;
24173;SDS011;12324;48.146;11.502;2022-09-16T05:27:36;13.32;;;6.75;;
24173;SDS011;12324;48.146;11.502;2022-09-16T05:30:03;16.30;;;7.53;;
24173;SDS011;12324;48.146;11.502;2022-09-16T05:32:30;15.27;;;6.93;;
24173;SDS011;12324;48.146;11.502;2022-09-16T05:34:58;15.15;;;7.30;;
24173;SDS011;12324;48.146;11.502;2022-09-16T05:37:24;15.52;;;6.93;;
24173;SDS011;12324;48.146;11.502;2022-09-16T05:39:51;16.30;;;7.43;;
24173;SDS011;12324;48.146;11.502;2022-09-16T05:42:18;14.43;;;6.55;;
24173;SDS011;12324;48.146;11.502;2022-09-16T05:44:44;15.93;;;7.45;;
24173;SDS011;12324;48.146;11.502;2022-09-16T05:47:11;14.02;;;7.35;;
24173;SDS011;12324;48.146;11.502;2022-09-16T05:49:38;13.05;;;6.32;;
24173;SDS011;12324;48.146;11.502;2022-09-16T05:52:04;16.75;;;6.70;;
24173;SDS011;12324;48.146;11.502;2022-09-16T05:54:31;15.77;;;6.80;;
24173;SDS011;12324;48.146;11.502;2022-09-16T05:56:57;16.35;;;7.45;;
24173;SDS011;12324;48.146;11.502;2022-09-16T05:59:31;17.58;;;7.35;;
24173;SDS011;12324;48.146;11.502;2022-09-16T06:01:57;14.88;;;7.20;;
24173;SDS011;12324;48.146;11.502;2022-09-16T06:04:24;14.25;;;7.05;;
24173;SDS011;12324;48.146;11.502;2022-09-16T06:06:51;13.25;;;6.82;;
24173;SDS011;12324;48.146;11.502;2022-09-16T06:09:21;14.05;;;6.90;;
24173;SDS011;12324;48.146;11.502;2022-09-16T06:11:50;12.95;;;6.18;;
24173;SDS011;12324;48.146;11.502;2022-09-16T06:14:26;13.82;;;6.43;;
24173;SDS011;12324;48.146;11.502;2022-09-16T06:16:53;14.32;;;6.60;;
24173;SDS011;12324;48.146;11.502;2022-09-16T06:19:20;15.88;;;7.32;;
24173;SDS011;12324;48.146;11.502;2022-09-16T06:21:47;13.30;;;6.90;;
24173;SDS011;12324;48.146;11.502;2022-09-16T06:24:15;14.05;;;7.25;;
24173;SDS011;12324;48.146;11.502;2022-09-16T06:26:43;14.68;;;7.53;;
24173;SDS011;12324;48.146;11.502;2022-09-16T06:29:11;14.93;;;7.90;;
24173;SDS011;12324;48.146;11.502;2022-09-16T06:31:38;16.55;;;7.88;;
24173;SDS011;12324;48.146;11.502;2022-09-16T06:34:06;16.63;;;8.05;;
24173;SDS011;12324;48.146;11.502;2022-09-16T06:36:34;14.93;;;7.07;;
24173;SDS011;12324;48.146;11.502;2022-09-16T06:39:09;13.75;;;7.32;;
24173;SDS011;12324;48.146;11.502;2022-09-16T06:41:37;15.80;;;8.18;;
24173;SDS011;12324;48.146;11.502;2022-09-16T06:44:03;15.48;;;7.57;;
24173;SDS011;12324;48.146;11.502;2022-09-16T06:46:30;17.73;;;8.07;;
24173;SDS011;12324;48.146;11.502;2022-09-16T06:48:57;14.25;;;6.88;;
24173;SDS011;12324;48.146;11.502;2022-09-16T06:51:30;14.52;;;7.55;;
24173;SDS011;12324;48.146;11.502;2022-09-16T06:53:58;16.42;;;7.40;;
24173;SDS011;12324;48.146;11.502;2022-09-16T06:56:27;14.02;;;7.45;;
24173;SDS011;12324;48.146;11.502;2022-09-16T06:58:53;15.98;;;7.70;;
24173;SDS011;12324;48.146;11.502;2022-09-16T07:01:21;16.20;;;7.97;;
24173;SDS011;12324;48.146;11.502;2022-09-16T07:03:51;16.80;;;7.15;;
24173;SDS011;12324;48.146;11.502;2022-09-16T07:06:19;16.00;;;7.80;;
24173;SDS011;12324;48.146;11.502;2022-09-16T07:09:03;12.38;;;6.25;;
24173;SDS011;12324;48.146;11.502;2022-09-16T07:11:30;25.23;;;9.25;;
24173;SDS011;12324;48.146;11.502;2022-09-16T07:13:57;15.95;;;8.55;;
24173;SDS011;12324;48.146;11.502;2022-09-16T07:16:25;16.05;;;7.53;;
24173;SDS011;12324;48.146;11.502;2022-09-16T07:18:53;14.80;;;7.63;;
24173;SDS011;12324;48.146;11.502;2022-09-16T07:21:26;18.20;;;8.75;;
24173;SDS011;12324;48.146;11.502;2022-09-16T07:23:55;17.70;;;7.80;;
24173;SDS011;12324;48.146;11.502;2022-09-16T07:26:25;21.15;;;10.23;;
24173;SDS011;12324;48.146;11.502;2022-09-16T07:28:54;13.68;;;7.55;;
24173;SDS011;12324;48.146;11.502;2022-09-16T07:31:24;16.60;;;8.18;;
24173;SDS011;12324;48.146;11.502;2022-09-16T07:33:54;17.25;;;7.15;;
24173;SDS011;12324;48.146;11.502;2022-09-16T07:36:29;14.00;;;7.90;;
24173;SDS011;12324;48.146;11.502;2022-09-16T07:38:58;14.07;;;7.35;;
24173;SDS011;12324;48.146;11.502;2022-09-16T07:41:29;14.82;;;7.43;;
24173;SDS011;12324;48.146;11.502;2022-09-16T07:43:58;20.10;;;8.48;;
24173;SDS011;12324;48.146;11.502;2022-09-16T07:46:27;14.00;;;7.10;;
24173;SDS011;12324;48.146;11.502;2022-09-16T07:48:57;12.25;;;6.90;;
24173;SDS011;12324;48.146;11.502;2022-09-16T07:51:25;17.83;;;8.70;;
24173;SDS011;12324;48.146;11.502;2022-09-16T07:53:54;12.98;;;6.82;;
24173;SDS011;12324;48.146;11.502;2022-09-16T07:56:24;15.90;;;7.47;;
24173;SDS011;12324;48.146;11.502;2022-09-16T07:58:54;15.20;;;7.70;;
24173;SDS011;12324;48.146;11.502;2022-09-16T08:01:22;17.42;;;7.13;;
24173;SDS011;12324;48.146;11.502;2022-09-16T08:03:50;15.68;;;7.35;;
24173;SDS011;12324;48.146;11.502;2022-09-16T08:06:18;16.00;;;7.88;;
24173;SDS011;12324;48.146;11.502;2022-09-16T08:08:46;14.65;;;7.80;;
24173;SDS011;12324;48.146;11.502;2022-09-16T08:11:16;15.02;;;7.93;;
24173;SDS011;12324;48.146;11.502;2022-09-16T08:13:42;13.45;;;6.60;;
24173;SDS011;12324;48.146;11.502;2022-09-16T08:16:12;14.75;;;7.43;;
24173;SDS011;12324;48.146;11.502;2022-09-16T08:18:41;14.15;;;7.30;;
24173;SDS011;12324;48.146;11.502;2022-09-16T08:21:09;13.88;;;7.18;;
24173;SDS011;12324;48.146;11.502;2022-09-16T08:23:38;16.15;;;8.48;;
24173;SDS011;12324;48.146;11.502;2022-09-16T08:26:05;14.48;;;7.13;;
24173;SDS011;12324;48.146;11.502;2022-09-16T08:28:34;15.55;;;7.93;;
24173;SDS011;12324;48.146;11.502;2022-09-16T08:31:23;15.70;;;7.57;;
24173;SDS011;12324;48.146;11.502;2022-09-16T08:33:49;16.08;;;7.30;;
24173;SDS011;12324;48.146;11.502;2022-09-16T08:36:17;14.65;;;6.65;;
24173;SDS011;12324;48.146;11.502;2022-09-16T08:38:46;14.63;;;7.38;;
24173;SDS011;12324;48.146;11.502;2022-09-16T08:52:01;14.07;;;7.47;;
24173;SDS011;12324;48.146;11.502;2022-09-16T08:54:38;12.65;;;6.65;;
24173;SDS011;12324;48.146;11.502;2022-09-16T08:57:05;14.90;;;7.47;;
24173;SDS011;12324;48.146;11.502;2022-09-16T08:59:40;14.07;;;6.63;;
24173;SDS011;12324;48.146;11.502;2022-09-16T09:04:57;15.20;;;7.68;;
24173;SDS011;12324;48.146;11.502;2022-09-16T09:28:34;12.80;;;6.38;;
24173;SDS011;12324;48.146;11.502;2022-09-16T09:33:50;16.30;;;7.43;;
24173;SDS011;12324;48.146;11.502;2022-09-16T09:39:18;15.63;;;6.97;;
24173;SDS011;12324;48.146;11.502;2022-09-16T09:42:13;15.68;;;7.63;;
24173;SDS011;12324;48.146;11.502;2022-09-16T09:44:59;15.30;;;8.05;;
24173;SDS011;12324;48.146;11.502;2022-09-16T09:47:36;13.63;;;7.45;;
24173;SDS011;12324;48.146;11.502;2022-09-16T09:50:17;16.33;;;7.60;;
24173;SDS011;12324;48.146;11.502;2022-09-16T09:55:58;16.73;;;9.30;;
24173;SDS011;12324;48.146;11.502;2022-09-16T09:58:35;17.73;;;8.30;;
24173;SDS011;12324;48.146;11.502;2022-09-16T10:01:09;16.33;;;8.38;;
24173;SDS011;12324;48.146;11.502;2022-09-16T10:03:36;34.45;;;20.77;;
24173;SDS011;12324;48.146;11.502;2022-09-16T10:06:05;31.45;;;16.35;;
24173;SDS011;12324;48.146;11.502;2022-09-16T10:08:35;56.28;;;31.88;;
24173;SDS011;12324;48.146;11.502;2022-09-16T10:11:15;30.33;;;17.23;;
24173;SDS011;12324;48.146;11.502;2022-09-16T10:13:46;18.42;;;8.82;;
24173;SDS011;12324;48.146;11.502;2022-09-16T10:16:19;54.35;;;32.10;;
24173;SDS011;12324;48.146;11.502;2022-09-16T10:18:55;19.45;;;10.55;;
24173;SDS011;12324;48.146;11.502;2022-09-16T10:21:38;17.55;;;9.77;;
24173;SDS011;12324;48.146;11.502;2022-09-16T10:27:18;18.00;;;9.43;;
24173;SDS011;12324;48.146;11.502;2022-09-16T10:29:45;39.25;;;20.10;;
24173;SDS011;12324;48.146;11.502;2022-09-16T10:32:16;20.63;;;11.73;;
24173;SDS011;12324;48.146;11.502;2022-09-16T10:34:44;24.90;;;14.55;;
24173;SDS011;12324;48.146;11.502;2022-09-16T10:39:39;23.92;;;13.07;;
24173;SDS011;12324;48.146;11.502;2022-09-16T10:42:44;22.27;;;10.88;;
24173;SDS011;12324;48.146;11.502;2022-09-16T10:45:08;22.40;;;12.75;;
24173;SDS011;12324;48.146;11.502;2022-09-16T10:47:45;28.58;;;15.75;;
24173;SDS011;12324;48.146;11.502;2022-09-16T10:50:16;19.33;;;11.70;;
24173;SDS011;12324;48.146;11.502;2022-09-16T10:52:45;22.38;;;10.80;;
24173;SDS011;12324;48.146;11.502;2022-09-16T10:58:16;16.20;;;6.85;;
24173;SDS011;12324;48.146;11.502;2022-09-16T11:00:47;15.25;;;7.00;;
24173;SDS011;12324;48.146;11.502;2022-09-16T11:27:51;16.27;;;7.72;;
24173;SDS011;12324;48.146;11.502;2022-09-16T11:30:36;14.27;;;7.10;;
24173;SDS011;12324;48.146;11.502;2022-09-16T11:33:15;15.07;;;7.70;;
24173;SDS011;12324;48.146;11.502;2022-09-16T11:42:32;15.15;;;7.50;;
24173;SDS011;12324;48.146;11.502;2022-09-16T11:45:41;12.13;;;5.57;;
24173;SDS011;12324;48.146;11.502;2022-09-16T11:51:14;16.73;;;7.63;;
24173;SDS011;12324;48.146;11.502;2022-09-16T11:56:46;25.10;;;12.75;;
24173;SDS011;12324;48.146;11.502;2022-09-16T12:01:49;22.40;;;14.63;;
24173;SDS011;12324;48.146;11.502;2022-09-16T12:04:24;14.32;;;7.20;;
24173;SDS011;12324;48.146;11.502;2022-09-16T12:12:15;17.90;;;9.95;;
24173;SDS011;12324;48.146;11.502;2022-09-16T12:14:52;13.20;;;7.15;;
24173;SDS011;12324;48.146;11.502;2022-09-16T12:17:32;15.90;;;7.55;;
24173;SDS011;12324;48.146;11.502;2022-09-16T12:22:57;13.88;;;6.82;;
24173;SDS011;12324;48.146;11.502;2022-09-16T12:28:34;13.48;;;6.32;;
24173;SDS011;12324;48.146;11.502;2022-09-16T12:31:13;13.00;;;5.28;;
24173;SDS011;12324;48.146;11.502;2022-09-16T12:34:04;10.27;;;5.32;;
24173;SDS011;12324;48.146;11.502;2022-09-16T12:36:38;12.63;;;5.53;;
24173;SDS011;12324;48.146;11.502;2022-09-16T12:39:08;12.32;;;6.15;;
24173;SDS011;12324;48.146;11.502;2022-09-16T12:47:06;14.98;;;7.28;;
24173;SDS011;12324;48.146;11.502;2022-09-16T13:06:54;9.88;;;4.53;;
24173;SDS011;12324;48.146;11.502;2022-09-16T13:09:30;11.07;;;5.18;;
24173;SDS011;12324;48.146;11.502;2022-09-16T13:12:02;17.23;;;6.03;;
24173;SDS011;12324;48.146;11.502;2022-09-16T13:15:02;10.93;;;4.95;;
24173;SDS011;12324;48.146;11.502;2022-09-16T13:17:34;10.05;;;4.75;;
24173;SDS011;12324;48.146;11.502;2022-09-16T13:20:19;9.48;;;4.68;;
24173;SDS011;12324;48.146;11.502;2022-09-16T13:30:51;10.23;;;5.28;;
24173;SDS011;12324;48.146;11.502;2022-09-16T13:33:20;9.82;;;4.55;;
24173;SDS011;12324;48.146;11.502;2022-09-16T13:36:11;10.48;;;4.65;;
24173;SDS011;12324;48.146;11.502;2022-09-16T13:38:44;10.82;;;5.20;;
24173;SDS011;12324;48.146;11.502;2022-09-16T13:41:27;12.18;;;4.93;;
24173;SDS011;12324;48.146;11.502;2022-09-16T13:52:30;8.85;;;4.80;;
24173;SDS011;12324;48.146;11.502;2022-09-16T13:54:59;8.35;;;4.10;;
24173;SDS011;12324;48.146;11.502;2022-09-16T14:00:24;11.95;;;4.82;;
24173;SDS011;12324;48.146;11.502;2022-09-16T14:08:33;7.00;;;3.90;;
24173;SDS011;12324;48.146;11.502;2022-09-16T14:13:45;8.93;;;4.32;;
24173;SDS011;12324;48.146;11.502;2022-09-16T14:16:22;8.57;;;4.35;;
24173;SDS011;12324;48.146;11.502;2022-09-16T14:21:31;9.45;;;4.68;;
24173;SDS011;12324;48.146;11.502;2022-09-16T14:26:48;11.23;;;4.90;;
24173;SDS011;12324;48.146;11.502;2022-09-16T14:29:17;10.73;;;4.95;;
24173;SDS011;12324;48.146;11.502;2022-09-16T14:31:44;8.25;;;4.22;;
24173;SDS011;12324;48.146;11.502;2022-09-16T14:34:13;10.90;;;5.07;;
24173;SDS011;12324;48.146;11.502;2022-09-16T14:36:46;9.48;;;4.18;;
24173;SDS011;12324;48.146;11.502;2022-09-16T14:39:13;8.73;;;4.28;;
24173;SDS011;12324;48.146;11.502;2022-09-16T14:41:50;8.77;;;4.68;;
24173;SDS011;12324;48.146;11.502;2022-09-16T14:44:41;8.77;;;4.03;;
24173;SDS011;12324;48.146;11.502;2022-09-16T14:47:22;8.38;;;4.18;;
24173;SDS011;12324;48.146;11.502;2022-09-16T14:50:23;9.40;;;5.00;;
24173;SDS011;12324;48.146;11.502;2022-09-16T14:53:02;8.48;;;3.90;;
24173;SDS011;12324;48.146;11.502;2022-09-16T14:55:31;7.50;;;3.83;;
24173;SDS011;12324;48.146;11.502;2022-09-16T14:58:01;9.18;;;4.70;;
24173;SDS011;12324;48.146;11.502;2022-09-16T15:00:30;7.07;;;3.67;;
24173;SDS011;12324;48.146;11.502;2022-09-16T15:03:14;7.88;;;4.60;;
24173;SDS011;12324;48.146;11.502;2022-09-16T15:05:47;9.75;;;4.03;;
24173;SDS011;12324;48.146;11.502;2022-09-16T15:08:17;9.07;;;4.15;;
24173;SDS011;12324;48.146;11.502;2022-09-16T15:10:45;10.10;;;4.38;;
24173;SDS011;12324;48.146;11.502;2022-09-16T15:13:19;6.47;;;4.00;;
24173;SDS011;12324;48.146;11.502;2022-09-16T15:15:53;8.02;;;4.32;;
24173;SDS011;12324;48.146;11.502;2022-09-16T15:18:32;11.35;;;4.63;;
24173;SDS011;12324;48.146;11.502;2022-09-16T15:23:30;9.38;;;4.70;;
24173;SDS011;12324;48.146;11.502;2022-09-16T15:26:05;9.48;;;4.70;;
24173;SDS011;12324;48.146;11.502;2022-09-16T15:34:00;8.40;;;4.07;;
24173;SDS011;12324;48.146;11.502;2022-09-16T15:36:48;9.02;;;4.78;;
24173;SDS011;12324;48.146;11.502;2022-09-16T15:39:28;7.13;;;3.92;;
24173;SDS011;12324;48.146;11.502;2022-09-16T15:42:08;10.23;;;5.07;;
24173;SDS011;12324;48.146;11.502;2022-09-16T15:44:46;10.23;;;4.50;;
24173;SDS011;12324;48.146;11.502;2022-09-16T15:47:22;12.82;;;4.20;;
24173;SDS011;12324;48.146;11.502;2022-09-16T15:49:51;6.78;;;3.97;;
24173;SDS011;12324;48.146;11.502;2022-09-16T15:52:32;9.85;;;4.35;;
24173;SDS011;12324;48.146;11.502;2022-09-16T15:55:11;9.25;;;4.65;;
24173;SDS011;12324;48.146;11.502;2022-09-16T15:57:39;10.32;;;5.15;;
24173;SDS011;12324;48.146;11.502;2022-09-16T16:00:10;11.43;;;4.88;;
24173;SDS011;12324;48.146;11.502;2022-09-16T16:03:14;10.23;;;4.88;;
24173;SDS011;12324;48.146;11.502;2022-09-16T16:05:48;12.32;;;4.47;;
24173;SDS011;12324;48.146;11.502;2022-09-16T16:08:36;11.20;;;4.25;;
24173;SDS011;12324;48.146;11.502;2022-09-16T16:11:06;8.80;;;4.10;;
24173;SDS011;12324;48.146;11.502;2022-09-16T16:13:35;7.57;;;4.22;;
24173;SDS011;12324;48.146;11.502;2022-09-16T16:16:01;8.25;;;3.85;;
24173;SDS011;12324;48.146;11.502;2022-09-16T16:18:31;10.15;;;3.90;;
24173;SDS011;12324;48.146;11.502;2022-09-16T16:20:58;13.63;;;4.70;;
24173;SDS011;12324;48.146;11.502;2022-09-16T16:23:29;11.02;;;4.50;;
24173;SDS011;12324;48.146;11.502;2022-09-16T16:25:55;10.73;;;4.53;;
24173;SDS011;12324;48.146;11.502;2022-09-16T16:28:22;8.60;;;4.13;;
24173;SDS011;12324;48.146;11.502;2022-09-16T16:30:49;9.60;;;4.40;;
24173;SDS011;12324;48.146;11.502;2022-09-16T16:33:16;11.25;;;4.75;;
24173;SDS011;12324;48.146;11.502;2022-09-16T16:35:42;9.00;;;4.43;;
24173;SDS011;12324;48.146;11.502;2022-09-16T16:38:09;8.32;;;4.03;;
24173;SDS011;12324;48.146;11.502;2022-09-16T16:40:36;9.77;;;4.20;;
24173;SDS011;12324;48.146;11.502;2022-09-16T16:43:02;9.95;;;4.63;;
24173;SDS011;12324;48.146;11.502;2022-09-16T16:45:29;7.30;;;3.72;;
24173;SDS011;12324;48.146;11.502;2022-09-16T16:47:56;9.32;;;4.50;;
24173;SDS011;12324;48.146;11.502;2022-09-16T16:50:22;9.15;;;4.22;;
24173;SDS011;12324;48.146;11.502;2022-09-16T16:52:49;10.32;;;4.75;;
24173;SDS011;12324;48.146;11.502;2022-09-16T16:55:18;8.98;;;4.15;;
24173;SDS011;12324;48.146;11.502;2022-09-16T16:57:44;9.57;;;4.85;;
24173;SDS011;12324;48.146;11.502;2022-09-16T17:00:11;12.20;;;4.70;;
24173;SDS011;12324;48.146;11.502;2022-09-16T17:02:39;10.60;;;4.80;;
24173;SDS011;12324;48.146;11.502;2022-09-16T17:05:06;8.63;;;4.65;;
24173;SDS011;12324;48.146;11.502;2022-09-16T17:07:33;11.85;;;5.50;;
24173;SDS011;12324;48.146;11.502;2022-09-16T17:10:00;12.70;;;5.38;;
24173;SDS011;12324;48.146;11.502;2022-09-16T17:12:26;8.45;;;4.60;;
24173;SDS011;12324;48.146;11.502;2022-09-16T17:14:53;9.02;;;4.45;;
24173;SDS011;12324;48.146;11.502;2022-09-16T17:17:20;9.60;;;4.30;;
24173;SDS011;12324;48.146;11.502;2022-09-16T17:19:47;10.32;;;5.07;;
24173;SDS011;12324;48.146;11.502;2022-09-16T17:22:13;12.20;;;5.25;;
24173;SDS011;12324;48.146;11.502;2022-09-16T17:24:40;10.13;;;4.80;;
24173;SDS011;12324;48.146;11.502;2022-09-16T17:27:07;8.02;;;4.20;;
24173;SDS011;12324;48.146;11.502;2022-09-16T17:29:34;10.88;;;5.13;;
24173;SDS011;12324;48.146;11.502;2022-09-16T17:32:00;13.52;;;4.78;;
24173;SDS011;12324;48.146;11.502;2022-09-16T17:34:28;10.07;;;5.07;;
24173;SDS011;12324;48.146;11.502;2022-09-16T17:36:55;8.85;;;4.30;;
24173;SDS011;12324;48.146;11.502;2022-09-16T17:39:23;10.75;;;5.18;;
24173;SDS011;12324;48.146;11.502;2022-09-16T17:41:50;10.13;;;5.00;;
24173;SDS011;12324;48.146;11.502;2022-09-16T17:44:17;9.35;;;5.00;;
24173;SDS011;12324;48.146;11.502;2022-09-16T17:46:44;8.82;;;4.68;;
24173;SDS011;12324;48.146;11.502;2022-09-16T17:49:18;14.15;;;5.93;;
24173;SDS011;12324;48.146;11.502;2022-09-16T17:51:47;10.90;;;4.93;;
24173;SDS011;12324;48.146;11.502;2022-09-16T17:54:14;10.15;;;5.15;;
24173;SDS011;12324;48.146;11.502;2022-09-16T17:56:42;12.18;;;4.68;;
24173;SDS011;12324;48.146;11.502;2022-09-16T17:59:09;10.85;;;5.22;;
24173;SDS011;12324;48.146;11.502;2022-09-16T18:01:38;11.10;;;5.55;;
24173;SDS011;12324;48.146;11.502;2022-09-16T18:04:05;9.65;;;4.82;;
24173;SDS011;12324;48.146;11.502;2022-09-16T18:06:34;9.85;;;4.75;;
24173;SDS011;12324;48.146;11.502;2022-09-16T18:09:08;9.55;;;5.03;;
24173;SDS011;12324;48.146;11.502;2022-09-16T18:11:36;11.63;;;5.50;;
24173;SDS011;12324;48.146;11.502;2022-09-16T18:14:04;9.00;;;4.13;;
24173;SDS011;12324;48.146;11.502;2022-09-16T18:16:32;11.23;;;5.55;;
24173;SDS011;12324;48.146;11.502;2022-09-16T18:19:00;13.15;;;5.80;;
24173;SDS011;12324;48.146;11.502;2022-09-16T18:21:27;14.32;;;5.03;;